PWSweather.com
Personal Weather Stations
Station Observations

SkegnessGB

Lat: 53.147585, Lon: 0.345774

Elevation: 18

Station Type: Fine Offset WH3080

http://www.skegnessweather.info/

High Low Average
Temperature 50.7°F10.4°C 35.4°F1.9°C 39.4°F4.1°C
Dew Point 44.4°F6.9°C 35.4°F1.9°C 38.0°F3.3°C
Winds 11.3 mph 18.2 kmh 0.7 mph 1.1 kmh 4.0 mph SSW6.4 kmh SSW
Wind Gusts 13.3 mph21.4 kmh 2.5 mph4.0 kmh 6.0 mph9.7 kmh
Humidity 100% 75% 95%
Pressure 29.20 in988.8 mb 29.11 in985.8 mb -
Precipitation 0.00 in0.0 mm - -
Hour Temp Dew Point Humidity Winds Wind Gusts Pressure Precip Precip Rate Daily Precip Total
12:00 AM 36.3°F2.4°C 35.8°F2.1°C 98% 1.1 mph SSE1.8 kmh SSE 2.5 mph4.0 kmh 29.13 in986.5 mb 0.02 in0.5 mm 0.00 in0.0 mm 0.02 in0.5 mm
12:10 AM 36.3°F2.4°C 35.8°F2.1°C 98% 0.7 mph NW1.1 kmh NW 3.4 mph5.5 kmh 29.13 in986.5 mb 0.02 in0.5 mm 0.00 in0.0 mm 0.02 in0.5 mm
12:20 AM 36.3°F2.4°C 35.8°F2.1°C 98% 0.9 mph SE1.4 kmh SE 3.4 mph5.5 kmh 29.13 in986.5 mb 0.02 in0.5 mm 0.00 in0.0 mm 0.02 in0.5 mm
12:30 AM 36.3°F2.4°C 35.8°F2.1°C 98% 3.5 mph S5.6 kmh S 4.2 mph6.8 kmh 29.14 in986.8 mb 0.01 in0.3 mm 0.00 in0.0 mm 0.02 in0.5 mm
12:40 AM 36.3°F2.4°C 35.8°F2.1°C 98% 3.4 mph SSE5.5 kmh SSE 4.9 mph7.9 kmh 29.13 in986.5 mb 0.00 in0.0 mm 0.00 in0.0 mm 0.02 in0.5 mm
12:50 AM 36.5°F2.5°C 36.0°F2.2°C 98% 2.4 mph S3.9 kmh S 3.4 mph5.5 kmh 29.13 in986.5 mb 0.00 in0.0 mm 0.00 in0.0 mm 0.02 in0.5 mm
01:00 AM 36.3°F2.4°C 35.8°F2.1°C 98% 3.8 mph SE6.1 kmh SE 4.2 mph6.8 kmh 29.13 in986.5 mb 0.00 in0.0 mm 0.00 in0.0 mm 0.02 in0.5 mm
01:10 AM 36.5°F2.5°C 36.0°F2.2°C 98% 3.0 mph E4.8 kmh E 4.9 mph7.9 kmh 29.12 in986.1 mb 0.00 in0.0 mm 0.00 in0.0 mm 0.02 in0.5 mm
01:20 AM 36.7°F2.6°C 36.2°F2.3°C 98% 4.0 mph S6.4 kmh S 4.9 mph7.9 kmh 29.12 in986.1 mb 0.00 in0.0 mm 0.00 in0.0 mm 0.02 in0.5 mm
01:30 AM 36.7°F2.6°C 36.4°F2.4°C 99% 4.9 mph S7.9 kmh S 4.9 mph7.9 kmh 29.13 in986.5 mb 0.00 in0.0 mm 0.00 in0.0 mm 0.02 in0.5 mm
01:40 AM 36.7°F2.6°C 36.4°F2.4°C 99% 5.5 mph S8.9 kmh S 6.6 mph10.6 kmh 29.13 in986.5 mb 0.00 in0.0 mm 0.00 in0.0 mm 0.02 in0.5 mm
01:50 AM 36.7°F2.6°C 36.4°F2.4°C 99% 5.8 mph SSW9.3 kmh SSW 6.6 mph10.6 kmh 29.13 in986.5 mb 0.00 in0.0 mm 0.00 in0.0 mm 0.02 in0.5 mm
02:00 AM 36.7°F2.6°C 36.4°F2.4°C 99% 4.3 mph SSE6.9 kmh SSE 5.9 mph9.5 kmh 29.12 in986.1 mb 0.00 in0.0 mm 0.00 in0.0 mm 0.02 in0.5 mm
02:10 AM 36.7°F2.6°C 36.4°F2.4°C 99% 4.4 mph SSW7.1 kmh SSW 4.9 mph7.9 kmh 29.12 in986.1 mb 0.00 in0.0 mm 0.00 in0.0 mm 0.02 in0.5 mm
02:20 AM 36.5°F2.5°C 36.2°F2.3°C 99% 3.8 mph S6.1 kmh S 4.2 mph6.8 kmh 29.11 in985.8 mb 0.00 in0.0 mm 0.00 in0.0 mm 0.02 in0.5 mm
02:30 AM 36.5°F2.5°C 36.2°F2.3°C 99% 4.4 mph S7.1 kmh S 5.9 mph9.5 kmh 29.11 in985.8 mb 0.00 in0.0 mm 0.00 in0.0 mm 0.02 in0.5 mm
02:40 AM 36.5°F2.5°C 36.2°F2.3°C 99% 4.1 mph SW6.6 kmh SW 4.9 mph7.9 kmh 29.11 in985.8 mb 0.00 in0.0 mm 0.00 in0.0 mm 0.02 in0.5 mm
02:50 AM 36.5°F2.5°C 36.5°F2.5°C 100% 4.9 mph S7.9 kmh S 5.9 mph9.5 kmh 29.12 in986.1 mb 0.00 in0.0 mm 0.00 in0.0 mm 0.02 in0.5 mm
03:00 AM 36.5°F2.5°C 36.5°F2.5°C 100% 4.3 mph S6.9 kmh S 5.9 mph9.5 kmh 29.11 in985.8 mb 0.00 in0.0 mm 0.00 in0.0 mm 0.02 in0.5 mm
03:10 AM 36.5°F2.5°C 36.5°F2.5°C 100% 5.9 mph SE9.5 kmh SE 5.9 mph9.5 kmh 29.11 in985.8 mb 0.00 in0.0 mm 0.00 in0.0 mm 0.02 in0.5 mm
03:20 AM 36.5°F2.5°C 36.5°F2.5°C 100% 4.1 mph SW6.6 kmh SW 5.9 mph9.5 kmh 29.11 in985.8 mb 0.00 in0.0 mm 0.00 in0.0 mm 0.02 in0.5 mm
03:30 AM 36.5°F2.5°C 36.5°F2.5°C 100% 3.0 mph S4.8 kmh S 4.2 mph6.8 kmh 29.12 in986.1 mb 0.00 in0.0 mm 0.00 in0.0 mm 0.02 in0.5 mm
03:40 AM 36.5°F2.5°C 36.5°F2.5°C 100% 4.6 mph SSW7.4 kmh SSW 5.9 mph9.5 kmh 29.12 in986.1 mb 0.00 in0.0 mm 0.00 in0.0 mm 0.02 in0.5 mm
03:50 AM 36.3°F2.4°C 36.3°F2.4°C 100% 3.5 mph S5.6 kmh S 5.9 mph9.5 kmh 29.12 in986.1 mb 0.00 in0.0 mm 0.00 in0.0 mm 0.02 in0.5 mm
04:00 AM 36.3°F2.4°C 36.3°F2.4°C 100% 2.6 mph S4.2 kmh S 3.4 mph5.5 kmh 29.12 in986.1 mb 0.00 in0.0 mm 0.00 in0.0 mm 0.02 in0.5 mm
04:10 AM 36.3°F2.4°C 36.3°F2.4°C 100% 2.9 mph SW4.7 kmh SW 4.2 mph6.8 kmh 29.12 in986.1 mb 0.00 in0.0 mm 0.00 in0.0 mm 0.02 in0.5 mm
04:20 AM 36.7°F2.6°C 36.7°F2.6°C 100% 5.5 mph S8.9 kmh S 6.6 mph10.6 kmh 29.11 in985.8 mb 0.00 in0.0 mm 0.00 in0.0 mm 0.02 in0.5 mm
04:30 AM 36.9°F2.7°C 36.9°F2.7°C 100% 7.2 mph SSW11.6 kmh SSW 6.6 mph10.6 kmh 29.12 in986.1 mb 0.00 in0.0 mm 0.00 in0.0 mm 0.02 in0.5 mm
04:40 AM 36.9°F2.7°C 36.9°F2.7°C 100% 5.3 mph S8.5 kmh S 5.9 mph9.5 kmh 29.12 in986.1 mb 0.00 in0.0 mm 0.00 in0.0 mm 0.02 in0.5 mm
04:50 AM 36.7°F2.6°C 36.7°F2.6°C 100% 4.7 mph S7.6 kmh S 4.9 mph7.9 kmh 29.12 in986.1 mb 0.00 in0.0 mm 0.00 in0.0 mm 0.02 in0.5 mm
05:00 AM 36.7°F2.6°C 36.7°F2.6°C 100% 4.6 mph SSW7.4 kmh SSW 4.9 mph7.9 kmh 29.13 in986.5 mb 0.00 in0.0 mm 0.00 in0.0 mm 0.02 in0.5 mm
05:10 AM 36.7°F2.6°C 36.7°F2.6°C 100% 3.9 mph WSW6.3 kmh WSW 4.2 mph6.8 kmh 29.13 in986.5 mb 0.00 in0.0 mm 0.00 in0.0 mm 0.02 in0.5 mm
05:20 AM 36.5°F2.5°C 36.5°F2.5°C 100% 4.1 mph S6.6 kmh S 4.9 mph7.9 kmh 29.13 in986.5 mb 0.00 in0.0 mm 0.00 in0.0 mm 0.02 in0.5 mm
05:30 AM 36.5°F2.5°C 36.5°F2.5°C 100% 4.5 mph S7.2 kmh S 4.9 mph7.9 kmh 29.13 in986.5 mb 0.00 in0.0 mm 0.00 in0.0 mm 0.02 in0.5 mm
05:40 AM 36.3°F2.4°C 36.3°F2.4°C 100% 3.9 mph SSW6.3 kmh SSW 4.9 mph7.9 kmh 29.14 in986.8 mb 0.00 in0.0 mm 0.00 in0.0 mm 0.02 in0.5 mm
05:50 AM 36.3°F2.4°C 36.3°F2.4°C 100% 3.9 mph S6.3 kmh S 4.9 mph7.9 kmh 29.14 in986.8 mb 0.00 in0.0 mm 0.00 in0.0 mm 0.02 in0.5 mm
06:00 AM 36.1°F2.3°C 36.1°F2.3°C 100% 3.5 mph S5.6 kmh S 3.4 mph5.5 kmh 29.14 in986.8 mb 0.00 in0.0 mm 0.00 in0.0 mm 0.02 in0.5 mm
06:10 AM 36.1°F2.3°C 36.1°F2.3°C 100% 3.7 mph S6.0 kmh S 4.2 mph6.8 kmh 29.14 in986.8 mb 0.00 in0.0 mm 0.00 in0.0 mm 0.02 in0.5 mm
06:20 AM 36.1°F2.3°C 36.1°F2.3°C 100% 4.5 mph SW7.2 kmh SW 4.9 mph7.9 kmh 29.14 in986.8 mb 0.00 in0.0 mm 0.00 in0.0 mm 0.02 in0.5 mm
06:30 AM 36.3°F2.4°C 36.3°F2.4°C 100% 2.8 mph SW4.5 kmh SW 4.2 mph6.8 kmh 29.15 in987.1 mb 0.00 in0.0 mm 0.00 in0.0 mm 0.02 in0.5 mm
06:40 AM 36.3°F2.4°C 36.3°F2.4°C 100% 3.7 mph SW6.0 kmh SW 4.9 mph7.9 kmh 29.15 in987.1 mb 0.00 in0.0 mm 0.00 in0.0 mm 0.02 in0.5 mm
06:50 AM 36.3°F2.4°C 36.3°F2.4°C 100% 4.7 mph S7.6 kmh S 5.9 mph9.5 kmh 29.15 in987.1 mb 0.00 in0.0 mm 0.00 in0.0 mm 0.02 in0.5 mm
07:00 AM 36.1°F2.3°C 36.1°F2.3°C 100% 3.4 mph SW5.5 kmh SW 4.2 mph6.8 kmh 29.15 in987.1 mb 0.00 in0.0 mm 0.00 in0.0 mm 0.02 in0.5 mm
07:10 AM 36.0°F2.2°C 36.0°F2.2°C 100% 2.9 mph SW4.7 kmh SW 4.2 mph6.8 kmh 29.16 in987.5 mb 0.00 in0.0 mm 0.00 in0.0 mm 0.02 in0.5 mm
07:20 AM 35.8°F2.1°C 35.8°F2.1°C 100% 4.7 mph S7.6 kmh S 4.9 mph7.9 kmh 29.16 in987.5 mb 0.00 in0.0 mm 0.00 in0.0 mm 0.02 in0.5 mm
07:30 AM 35.6°F2.0°C 35.6°F2.0°C 100% 6.8 mph SSE10.9 kmh SSE 6.6 mph10.6 kmh 29.17 in987.8 mb 0.00 in0.0 mm 0.00 in0.0 mm 0.02 in0.5 mm
07:40 AM 35.4°F1.9°C 35.4°F1.9°C 100% 7.1 mph S11.4 kmh S 7.6 mph12.2 kmh 29.17 in987.8 mb 0.00 in0.0 mm 0.00 in0.0 mm 0.02 in0.5 mm
07:50 AM 35.6°F2.0°C 35.6°F2.0°C 100% 6.5 mph SSW10.5 kmh SSW 6.6 mph10.6 kmh 29.17 in987.8 mb 0.00 in0.0 mm 0.00 in0.0 mm 0.02 in0.5 mm
08:00 AM 35.6°F2.0°C 35.6°F2.0°C 100% 5.6 mph S9.0 kmh S 5.9 mph9.5 kmh 29.18 in988.1 mb 0.00 in0.0 mm 0.00 in0.0 mm 0.02 in0.5 mm
08:10 AM 35.6°F2.0°C 35.6°F2.0°C 100% 5.8 mph S9.3 kmh S 5.9 mph9.5 kmh 29.18 in988.1 mb 0.00 in0.0 mm 0.00 in0.0 mm 0.02 in0.5 mm
08:20 AM 35.8°F2.1°C 35.8°F2.1°C 100% 5.9 mph S9.5 kmh S 7.6 mph12.2 kmh 29.18 in988.1 mb 0.00 in0.0 mm 0.00 in0.0 mm 0.02 in0.5 mm
08:30 AM 36.3°F2.4°C 36.3°F2.4°C 100% 5.4 mph S8.7 kmh S 6.6 mph10.6 kmh 29.18 in988.1 mb 0.00 in0.0 mm 0.00 in0.0 mm 0.02 in0.5 mm
08:40 AM 37.2°F2.9°C 37.2°F2.9°C 100% 5.0 mph S8.0 kmh S 6.6 mph10.6 kmh 29.18 in988.1 mb 0.00 in0.0 mm 0.00 in0.0 mm 0.02 in0.5 mm
08:50 AM 37.6°F3.1°C 37.6°F3.1°C 100% 4.3 mph SSW6.9 kmh SSW 7.6 mph12.2 kmh 29.19 in988.5 mb 0.00 in0.0 mm 0.00 in0.0 mm 0.02 in0.5 mm
09:00 AM 37.9°F3.3°C 37.9°F3.3°C 100% 5.1 mph SW8.2 kmh SW 5.9 mph9.5 kmh 29.18 in988.1 mb 0.00 in0.0 mm 0.00 in0.0 mm 0.02 in0.5 mm
09:10 AM 37.6°F3.1°C 37.6°F3.1°C 100% 5.8 mph SSE9.3 kmh SSE 8.4 mph13.5 kmh 29.19 in988.5 mb 0.00 in0.0 mm 0.00 in0.0 mm 0.02 in0.5 mm
09:20 AM 37.8°F3.2°C 37.8°F3.2°C 100% 4.1 mph SW6.6 kmh SW 4.9 mph7.9 kmh 29.18 in988.1 mb 0.00 in0.0 mm 0.00 in0.0 mm 0.02 in0.5 mm
09:30 AM 38.5°F3.6°C 38.5°F3.6°C 100% 5.8 mph SW9.3 kmh SW 6.6 mph10.6 kmh 29.19 in988.5 mb 0.00 in0.0 mm 0.00 in0.0 mm 0.02 in0.5 mm
09:40 AM 39.6°F4.2°C 39.6°F4.2°C 100% 5.9 mph SW9.5 kmh SW 7.6 mph12.2 kmh 29.19 in988.5 mb 0.00 in0.0 mm 0.00 in0.0 mm 0.02 in0.5 mm
09:50 AM 39.9°F4.4°C 39.9°F4.4°C 100% 7.0 mph S11.3 kmh S 8.4 mph13.5 kmh 29.19 in988.5 mb 0.00 in0.0 mm 0.00 in0.0 mm 0.02 in0.5 mm
10:00 AM 41.5°F5.3°C 41.5°F5.3°C 100% 7.2 mph SW11.6 kmh SW 9.1 mph14.6 kmh 29.19 in988.5 mb 0.00 in0.0 mm 0.00 in0.0 mm 0.02 in0.5 mm
10:10 AM 41.0°F5.0°C 40.7°F4.8°C 99% 10.5 mph S16.9 kmh S 10.1 mph16.3 kmh 29.20 in988.8 mb 0.00 in0.0 mm 0.00 in0.0 mm 0.02 in0.5 mm
10:20 AM 41.0°F5.0°C 40.2°F4.6°C 97% 8.9 mph SSE14.3 kmh SSE 11.8 mph19.0 kmh 29.19 in988.5 mb 0.00 in0.0 mm 0.00 in0.0 mm 0.02 in0.5 mm
10:30 AM 41.5°F5.3°C 40.8°F4.9°C 97% 6.7 mph S10.8 kmh S 7.6 mph12.2 kmh 29.20 in988.8 mb 0.00 in0.0 mm 0.00 in0.0 mm 0.02 in0.5 mm
10:40 AM 41.7°F5.4°C 40.7°F4.8°C 96% 6.6 mph SW10.6 kmh SW 6.6 mph10.6 kmh 29.20 in988.8 mb 0.00 in0.0 mm 0.00 in0.0 mm 0.02 in0.5 mm
10:50 AM 42.3°F5.7°C 41.2°F5.1°C 96% 4.5 mph SW7.2 kmh SW 6.6 mph10.6 kmh 29.20 in988.8 mb 0.00 in0.0 mm 0.00 in0.0 mm 0.02 in0.5 mm
11:00 AM 42.4°F5.8°C 41.1°F5.1°C 95% 6.6 mph WSW10.6 kmh WSW 8.4 mph13.5 kmh 29.20 in988.8 mb 0.00 in0.0 mm 0.00 in0.0 mm 0.02 in0.5 mm
11:10 AM 42.4°F5.8°C 41.1°F5.1°C 95% 6.8 mph SW10.9 kmh SW 7.6 mph12.2 kmh 29.20 in988.8 mb 0.00 in0.0 mm 0.00 in0.0 mm 0.02 in0.5 mm
11:20 AM 42.4°F5.8°C 41.1°F5.1°C 95% 7.6 mph S12.2 kmh S 8.4 mph13.5 kmh 29.20 in988.8 mb 0.00 in0.0 mm 0.00 in0.0 mm 0.02 in0.5 mm
11:30 AM 42.6°F5.9°C 41.3°F5.2°C 95% 7.3 mph S11.7 kmh S 7.6 mph12.2 kmh 29.20 in988.8 mb 0.00 in0.0 mm 0.00 in0.0 mm 0.02 in0.5 mm
11:40 AM 42.8°F6.0°C 39.8°F4.3°C 89% 7.8 mph S12.6 kmh S 10.1 mph16.3 kmh 29.20 in988.8 mb 0.00 in0.0 mm 0.00 in0.0 mm 0.02 in0.5 mm
11:50 AM 43.7°F6.5°C 40.7°F4.8°C 89% 5.1 mph SW8.2 kmh SW 5.9 mph9.5 kmh 29.20 in988.8 mb 0.00 in0.0 mm 0.00 in0.0 mm 0.02 in0.5 mm
12:00 PM 44.2°F6.8°C 40.9°F4.9°C 88% 8.0 mph S12.9 kmh S 9.1 mph14.6 kmh 29.20 in988.8 mb 0.00 in0.0 mm 0.00 in0.0 mm 0.02 in0.5 mm
12:10 PM 44.2°F6.8°C 40.6°F4.8°C 87% 8.8 mph S14.2 kmh S 9.1 mph14.6 kmh 29.20 in988.8 mb 0.00 in0.0 mm 0.00 in0.0 mm 0.02 in0.5 mm
12:20 PM 44.6°F7.0°C 40.7°F4.8°C 86% 7.8 mph SSE12.6 kmh SSE 9.1 mph14.6 kmh 29.19 in988.5 mb 0.00 in0.0 mm 0.00 in0.0 mm 0.02 in0.5 mm
12:30 PM 46.6°F8.1°C 42.6°F5.9°C 86% 5.6 mph SSW9.0 kmh SSW 6.6 mph10.6 kmh 29.19 in988.5 mb 0.00 in0.0 mm 0.00 in0.0 mm 0.02 in0.5 mm
12:40 PM 47.8°F8.8°C 42.9°F6.1°C 83% 7.7 mph SW12.4 kmh SW 13.3 mph21.4 kmh 29.19 in988.5 mb 0.00 in0.0 mm 0.00 in0.0 mm 0.02 in0.5 mm
12:50 PM 48.2°F9.0°C 43.0°F6.1°C 82% 7.0 mph WSW11.3 kmh WSW 8.4 mph13.5 kmh 29.19 in988.5 mb 0.00 in0.0 mm 0.00 in0.0 mm 0.02 in0.5 mm
01:00 PM 49.6°F9.8°C 44.4°F6.9°C 82% 7.7 mph SW12.4 kmh SW 10.1 mph16.3 kmh 29.19 in988.5 mb 0.00 in0.0 mm 0.00 in0.0 mm 0.02 in0.5 mm
01:10 PM 49.5°F9.7°C 43.2°F6.2°C 79% 11.3 mph SE18.2 kmh SE 10.1 mph16.3 kmh 29.19 in988.5 mb 0.00 in0.0 mm 0.00 in0.0 mm 0.02 in0.5 mm
01:20 PM 49.6°F9.8°C 43.4°F6.3°C 79% 7.8 mph S12.6 kmh S 10.1 mph16.3 kmh 29.19 in988.5 mb 0.00 in0.0 mm 0.00 in0.0 mm 0.02 in0.5 mm
01:30 PM 50.4°F10.2°C 43.8°F6.6°C 78% 5.8 mph SW9.3 kmh SW 7.6 mph12.2 kmh 29.19 in988.5 mb 0.00 in0.0 mm 0.00 in0.0 mm 0.02 in0.5 mm
01:40 PM 50.2°F10.1°C 43.6°F6.4°C 78% 7.3 mph SSE11.7 kmh SSE 9.1 mph14.6 kmh 29.19 in988.5 mb 0.00 in0.0 mm 0.00 in0.0 mm 0.02 in0.5 mm
01:50 PM 50.7°F10.4°C 44.1°F6.7°C 78% 4.4 mph SE7.1 kmh SE 8.4 mph13.5 kmh 29.19 in988.5 mb 0.00 in0.0 mm 0.00 in0.0 mm 0.02 in0.5 mm
02:00 PM 49.8°F9.9°C 42.2°F5.7°C 75% 3.0 mph WSW4.8 kmh WSW 6.6 mph10.6 kmh 29.18 in988.1 mb 0.00 in0.0 mm 0.00 in0.0 mm 0.02 in0.5 mm
02:10 PM 48.2°F9.0°C 41.3°F5.2°C 77% 2.3 mph N3.7 kmh N 4.2 mph6.8 kmh 29.19 in988.5 mb 0.00 in0.0 mm 0.00 in0.0 mm 0.02 in0.5 mm
02:20 PM 46.6°F8.1°C 39.8°F4.3°C 77% 1.9 mph NW3.1 kmh NW 3.4 mph5.5 kmh 29.18 in988.1 mb 0.00 in0.0 mm 0.00 in0.0 mm 0.02 in0.5 mm
02:30 PM 45.9°F7.7°C 40.4°F4.7°C 81% 2.0 mph NW3.2 kmh NW 3.4 mph5.5 kmh 29.18 in988.1 mb 0.00 in0.0 mm 0.00 in0.0 mm 0.02 in0.5 mm
02:40 PM 45.9°F7.7°C 40.4°F4.7°C 81% 2.0 mph NW3.2 kmh NW 4.2 mph6.8 kmh 29.18 in988.1 mb 0.00 in0.0 mm 0.00 in0.0 mm 0.02 in0.5 mm
02:50 PM 43.9°F6.6°C 38.1°F3.4°C 80% 2.3 mph NNW3.7 kmh NNW 4.2 mph6.8 kmh 29.18 in988.1 mb 0.00 in0.0 mm 0.00 in0.0 mm 0.02 in0.5 mm
03:00 PM 43.2°F6.2°C 38.0°F3.3°C 82% 3.1 mph N5.0 kmh N 4.9 mph7.9 kmh 29.18 in988.1 mb 0.00 in0.0 mm 0.00 in0.0 mm 0.02 in0.5 mm
03:10 PM 43.0°F6.1°C 38.2°F3.4°C 83% 3.6 mph NW5.8 kmh NW 4.2 mph6.8 kmh 29.19 in988.5 mb 0.00 in0.0 mm 0.00 in0.0 mm 0.02 in0.5 mm
03:20 PM 42.4°F5.8°C 39.4°F4.1°C 89% 3.7 mph N6.0 kmh N 4.9 mph7.9 kmh 29.18 in988.1 mb 0.00 in0.0 mm 0.00 in0.0 mm 0.02 in0.5 mm
03:30 PM 41.9°F5.5°C 39.2°F4.0°C 90% 4.1 mph N6.6 kmh N 6.6 mph10.6 kmh 29.18 in988.1 mb 0.00 in0.0 mm 0.00 in0.0 mm 0.02 in0.5 mm
03:40 PM 41.7°F5.4°C 39.3°F4.1°C 91% 4.2 mph NNE6.8 kmh NNE 7.6 mph12.2 kmh 29.18 in988.1 mb 0.00 in0.0 mm 0.00 in0.0 mm 0.02 in0.5 mm
03:50 PM 41.2°F5.1°C 39.0°F3.9°C 92% 3.6 mph N5.8 kmh N 5.9 mph9.5 kmh 29.18 in988.1 mb 0.00 in0.0 mm 0.00 in0.0 mm 0.02 in0.5 mm
04:00 PM 41.2°F5.1°C 39.0°F3.9°C 92% 4.0 mph NE6.4 kmh NE 5.9 mph9.5 kmh 29.18 in988.1 mb 0.00 in0.0 mm 0.00 in0.0 mm 0.02 in0.5 mm
04:10 PM 41.4°F5.2°C 39.2°F4.0°C 92% 3.9 mph NNE6.3 kmh NNE 5.9 mph9.5 kmh 29.18 in988.1 mb 0.00 in0.0 mm 0.00 in0.0 mm 0.02 in0.5 mm
04:20 PM 41.2°F5.1°C 39.0°F3.9°C 92% 4.2 mph N6.8 kmh N 6.6 mph10.6 kmh 29.18 in988.1 mb 0.00 in0.0 mm 0.00 in0.0 mm 0.02 in0.5 mm
04:30 PM 40.8°F4.9°C 38.7°F3.7°C 92% 2.6 mph N4.2 kmh N 3.4 mph5.5 kmh 29.18 in988.1 mb 0.00 in0.0 mm 0.00 in0.0 mm 0.02 in0.5 mm
04:40 PM 40.5°F4.7°C 38.3°F3.5°C 92% 2.7 mph N4.3 kmh N 4.2 mph6.8 kmh 29.18 in988.1 mb 0.00 in0.0 mm 0.00 in0.0 mm 0.02 in0.5 mm
04:50 PM 39.7°F4.3°C 37.6°F3.1°C 92% 3.3 mph N5.3 kmh N 5.9 mph9.5 kmh 29.18 in988.1 mb 0.00 in0.0 mm 0.00 in0.0 mm 0.02 in0.5 mm
05:00 PM 39.2°F4.0°C 37.1°F2.8°C 92% 1.4 mph N2.3 kmh N 3.4 mph5.5 kmh 29.17 in987.8 mb 0.00 in0.0 mm 0.00 in0.0 mm 0.02 in0.5 mm
05:10 PM 39.4°F4.1°C 37.2°F2.9°C 92% 1.4 mph N2.3 kmh N 5.9 mph9.5 kmh 29.17 in987.8 mb 0.00 in0.0 mm 0.00 in0.0 mm 0.02 in0.5 mm
05:20 PM 39.7°F4.3°C 37.9°F3.3°C 93% 3.0 mph SW4.8 kmh SW 4.2 mph6.8 kmh 29.18 in988.1 mb 0.00 in0.0 mm 0.00 in0.0 mm 0.02 in0.5 mm
05:30 PM 39.9°F4.4°C 38.1°F3.4°C 93% 2.3 mph NW3.7 kmh NW 6.6 mph10.6 kmh 29.18 in988.1 mb 0.00 in0.0 mm 0.00 in0.0 mm 0.02 in0.5 mm
05:40 PM 40.5°F4.7°C 38.6°F3.7°C 93% 3.8 mph SSW6.1 kmh SSW 7.6 mph12.2 kmh 29.18 in988.1 mb 0.00 in0.0 mm 0.00 in0.0 mm 0.02 in0.5 mm
05:50 PM 40.3°F4.6°C 38.4°F3.6°C 93% 2.6 mph SE4.2 kmh SE 4.9 mph7.9 kmh 29.18 in988.1 mb 0.00 in0.0 mm 0.00 in0.0 mm 0.02 in0.5 mm
06:00 PM 40.1°F4.5°C 38.2°F3.4°C 93% 3.2 mph SW5.1 kmh SW 4.9 mph7.9 kmh 29.18 in988.1 mb 0.00 in0.0 mm 0.00 in0.0 mm 0.02 in0.5 mm
06:10 PM 40.1°F4.5°C 38.2°F3.4°C 93% 2.7 mph W4.3 kmh W 3.4 mph5.5 kmh 29.19 in988.5 mb 0.00 in0.0 mm 0.00 in0.0 mm 0.02 in0.5 mm
06:20 PM 39.9°F4.4°C 38.1°F3.4°C 93% 3.5 mph S5.6 kmh S 6.6 mph10.6 kmh 29.18 in988.1 mb 0.00 in0.0 mm 0.00 in0.0 mm 0.02 in0.5 mm
06:30 PM 39.7°F4.3°C 37.9°F3.3°C 93% 3.0 mph SW4.8 kmh SW 5.9 mph9.5 kmh 29.19 in988.5 mb 0.00 in0.0 mm 0.00 in0.0 mm 0.02 in0.5 mm
06:40 PM 39.6°F4.2°C 37.7°F3.2°C 93% 3.1 mph N5.0 kmh N 5.9 mph9.5 kmh 29.19 in988.5 mb 0.00 in0.0 mm 0.00 in0.0 mm 0.02 in0.5 mm
06:50 PM 39.6°F4.2°C 37.7°F3.2°C 93% 2.9 mph SW4.7 kmh SW 4.2 mph6.8 kmh 29.18 in988.1 mb 0.00 in0.0 mm 0.00 in0.0 mm 0.02 in0.5 mm
07:00 PM 39.4°F4.1°C 37.5°F3.1°C 93% 1.3 mph S2.1 kmh S 2.5 mph4.0 kmh 29.19 in988.5 mb 0.00 in0.0 mm 0.00 in0.0 mm 0.02 in0.5 mm
07:10 PM 39.2°F4.0°C 37.3°F2.9°C 93% 1.1 mph SSE1.8 kmh SSE 2.5 mph4.0 kmh 29.18 in988.1 mb 0.00 in0.0 mm 0.00 in0.0 mm 0.02 in0.5 mm
07:20 PM 39.0°F3.9°C 37.2°F2.9°C 93% 1.8 mph WSW2.9 kmh WSW 4.2 mph6.8 kmh 29.19 in988.5 mb 0.00 in0.0 mm 0.00 in0.0 mm 0.02 in0.5 mm
07:30 PM 39.2°F4.0°C 37.6°F3.1°C 94% 3.9 mph SSE6.3 kmh SSE 6.6 mph10.6 kmh 29.18 in988.1 mb 0.00 in0.0 mm 0.00 in0.0 mm 0.02 in0.5 mm
07:40 PM 39.2°F4.0°C 37.6°F3.1°C 94% 4.7 mph SSW7.6 kmh SSW 7.6 mph12.2 kmh 29.18 in988.1 mb 0.00 in0.0 mm 0.00 in0.0 mm 0.02 in0.5 mm
07:50 PM 39.0°F3.9°C 37.4°F3.0°C 94% 4.0 mph SSW6.4 kmh SSW 6.6 mph10.6 kmh 29.18 in988.1 mb 0.00 in0.0 mm 0.00 in0.0 mm 0.02 in0.5 mm
08:00 PM 38.8°F3.8°C 37.3°F2.9°C 94% 2.3 mph NW3.7 kmh NW 4.2 mph6.8 kmh 29.18 in988.1 mb 0.00 in0.0 mm 0.00 in0.0 mm 0.02 in0.5 mm
08:10 PM 38.8°F3.8°C 37.3°F2.9°C 94% 2.6 mph NW4.2 kmh NW 4.2 mph6.8 kmh 29.18 in988.1 mb 0.00 in0.0 mm 0.00 in0.0 mm 0.02 in0.5 mm
08:20 PM 38.8°F3.8°C 37.5°F3.1°C 95% 2.9 mph ESE4.7 kmh ESE 4.2 mph6.8 kmh 29.17 in987.8 mb 0.00 in0.0 mm 0.00 in0.0 mm 0.02 in0.5 mm
08:30 PM 38.8°F3.8°C 37.5°F3.1°C 95% 3.2 mph NNW5.1 kmh NNW 8.4 mph13.5 kmh 29.18 in988.1 mb 0.00 in0.0 mm 0.00 in0.0 mm 0.02 in0.5 mm
08:40 PM 38.8°F3.8°C 37.5°F3.1°C 95% 3.7 mph NE6.0 kmh NE 5.9 mph9.5 kmh 29.18 in988.1 mb 0.00 in0.0 mm 0.00 in0.0 mm 0.02 in0.5 mm
08:50 PM 38.5°F3.6°C 37.2°F2.9°C 95% 3.0 mph S4.8 kmh S 4.9 mph7.9 kmh 29.18 in988.1 mb 0.00 in0.0 mm 0.00 in0.0 mm 0.02 in0.5 mm
09:00 PM 38.3°F3.5°C 37.0°F2.8°C 95% 3.4 mph WNW5.5 kmh WNW 6.6 mph10.6 kmh 29.17 in987.8 mb 0.00 in0.0 mm 0.00 in0.0 mm 0.02 in0.5 mm
09:10 PM 38.3°F3.5°C 37.3°F2.9°C 96% 3.0 mph N4.8 kmh N 3.4 mph5.5 kmh 29.17 in987.8 mb 0.00 in0.0 mm 0.00 in0.0 mm 0.02 in0.5 mm
09:20 PM 38.3°F3.5°C 37.3°F2.9°C 96% 3.2 mph NW5.1 kmh NW 4.2 mph6.8 kmh 29.17 in987.8 mb 0.00 in0.0 mm 0.00 in0.0 mm 0.02 in0.5 mm
09:30 PM 38.3°F3.5°C 37.3°F2.9°C 96% 3.0 mph N4.8 kmh N 4.9 mph7.9 kmh 29.16 in987.5 mb 0.00 in0.0 mm 0.00 in0.0 mm 0.02 in0.5 mm
09:40 PM 37.9°F3.3°C 36.9°F2.7°C 96% 3.8 mph N6.1 kmh N 5.9 mph9.5 kmh 29.16 in987.5 mb 0.00 in0.0 mm 0.00 in0.0 mm 0.02 in0.5 mm
09:50 PM 37.8°F3.2°C 36.7°F2.6°C 96% 3.8 mph NE6.1 kmh NE 4.9 mph7.9 kmh 29.16 in987.5 mb 0.00 in0.0 mm 0.00 in0.0 mm 0.02 in0.5 mm
10:00 PM 37.6°F3.1°C 36.5°F2.5°C 96% 3.5 mph NNW5.6 kmh NNW 4.9 mph7.9 kmh 29.15 in987.1 mb 0.00 in0.0 mm 0.00 in0.0 mm 0.02 in0.5 mm
10:10 PM 37.6°F3.1°C 36.8°F2.7°C 97% 5.2 mph NNW8.4 kmh NNW 6.6 mph10.6 kmh 29.14 in986.8 mb 0.00 in0.0 mm 0.00 in0.0 mm 0.02 in0.5 mm
10:20 PM 37.4°F3.0°C 36.6°F2.6°C 97% 5.0 mph N8.0 kmh N 6.6 mph10.6 kmh 29.15 in987.1 mb 0.00 in0.0 mm 0.00 in0.0 mm 0.02 in0.5 mm
10:30 PM 37.2°F2.9°C 36.4°F2.4°C 97% 5.4 mph N8.7 kmh N 7.6 mph12.2 kmh 29.14 in986.8 mb 0.00 in0.0 mm 0.00 in0.0 mm 0.02 in0.5 mm
10:40 PM 37.0°F2.8°C 36.3°F2.4°C 97% 6.5 mph N10.5 kmh N 8.4 mph13.5 kmh 29.14 in986.8 mb 0.00 in0.0 mm 0.00 in0.0 mm 0.02 in0.5 mm
10:50 PM 37.0°F2.8°C 36.3°F2.4°C 97% 3.9 mph NNW6.3 kmh NNW 4.9 mph7.9 kmh 29.14 in986.8 mb 0.00 in0.0 mm 0.00 in0.0 mm 0.02 in0.5 mm
11:00 PM 37.0°F2.8°C 36.5°F2.5°C 98% 4.5 mph N7.2 kmh N 5.9 mph9.5 kmh 29.14 in986.8 mb 0.00 in0.0 mm 0.00 in0.0 mm 0.02 in0.5 mm
11:10 PM 37.0°F2.8°C 36.5°F2.5°C 98% 5.9 mph NNE9.5 kmh NNE 6.6 mph10.6 kmh 29.13 in986.5 mb 0.00 in0.0 mm 0.00 in0.0 mm 0.02 in0.5 mm
11:20 PM 37.0°F2.8°C 36.5°F2.5°C 98% 4.9 mph NNW7.9 kmh NNW 6.6 mph10.6 kmh 29.13 in986.5 mb 0.00 in0.0 mm 0.00 in0.0 mm 0.02 in0.5 mm
11:30 PM 37.4°F3.0°C 36.9°F2.7°C 98% 5.2 mph NE8.4 kmh NE 10.1 mph16.3 kmh 29.12 in986.1 mb 0.00 in0.0 mm 0.00 in0.0 mm 0.02 in0.5 mm
11:40 PM 37.6°F3.1°C 37.3°F2.9°C 99% 5.5 mph NNW8.9 kmh NNW 5.9 mph9.5 kmh 29.12 in986.1 mb 0.00 in0.0 mm 0.00 in0.0 mm 0.02 in0.5 mm
11:50 PM 37.8°F3.2°C 37.5°F3.1°C 99% 4.5 mph N7.2 kmh N 5.9 mph9.5 kmh 29.12 in986.1 mb 0.00 in0.0 mm 0.00 in0.0 mm 0.02 in0.5 mm